Time;durP1;ratioP1;P1;durP2;ratioP2;P2;SDS_P1;SDS_P2;PMS_P1;PMS_P2;Temp;Humidity;BMP_temperature;BMP_pressure;BME280_temperature;BME280_humidity;BME280_pressure;Samples;Min_cycle;Max_cycle;Signal;HPM_P1;HPM_P2
2024/01/21 00:01:19;;;;;;;1.95;1.15;;;-3276.30;80.40;;;;;;4996217;28;20394;-73
2024/01/21 00:03:45;;;;;;;2.20;0.95;;;-3276.30;80.60;;;;;;5001739;28;20120;-73
2024/01/21 00:06:10;;;;;;;2.05;1.20;;;-3276.30;80.10;;;;;;4999944;28;20122;-73
2024/01/21 00:08:36;;;;;;;2.42;1.40;;;-3276.30;79.50;;;;;;5014323;28;20036;-73
2024/01/21 00:11:01;;;;;;;2.95;1.58;;;-3276.30;79.30;;;;;;4990072;28;20450;-72
2024/01/21 00:13:28;;;;;;;2.03;1.02;;;-3276.20;79.50;;;;;;4995057;28;20041;-73
2024/01/21 00:15:53;;;;;;;3.08;1.15;;;-3276.10;79.80;;;;;;4996724;28;20121;-73
2024/01/21 00:18:19;;;;;;;2.70;1.35;;;-3276.20;79.10;;;;;;4994268;28;20168;-73
2024/01/21 00:20:44;;;;;;;3.83;1.17;;;-3276.10;79.70;;;;;;4994015;28;20085;-73
2024/01/21 00:23:10;;;;;;;2.10;1.45;;;-3276.10;79.10;;;;;;4996143;28;20104;-74
2024/01/21 00:25:35;;;;;;;2.08;1.17;;;-3276.00;79.60;;;;;;4994415;28;20030;-74
2024/01/21 00:28:01;;;;;;;2.42;1.20;;;-3276.00;78.80;;;;;;4997978;28;20038;-73
2024/01/21 00:30:27;;;;;;;1.95;1.48;;;-3275.90;79.20;;;;;;5002059;28;20033;-74
2024/01/21 00:32:52;;;;;;;2.80;1.13;;;-3276.00;78.40;;;;;;4994934;28;20478;-73
2024/01/21 00:35:18;;;;;;;3.20;1.13;;;-3276.00;78.40;;;;;;5003543;28;20037;-73
2024/01/21 00:37:43;;;;;;;2.38;1.27;;;-3275.80;79.50;;;;;;5004102;28;20115;-73
2024/01/21 00:40:09;;;;;;;2.85;1.42;;;-3275.90;78.90;;;;;;4999244;28;20048;-73
2024/01/21 00:42:35;;;;;;;2.03;0.98;;;-3276.00;78.00;;;;;;5007322;28;20129;-72
2024/01/21 00:45:01;;;;;;;3.55;1.42;;;-3275.90;78.20;;;;;;5000010;28;20077;-73
2024/01/21 00:47:26;;;;;;;1.88;1.13;;;-3276.00;78.10;;;;;;5003038;28;20061;-72
2024/01/21 00:49:52;;;;;;;2.55;1.23;;;-3276.00;77.50;;;;;;4997656;28;20086;-73
2024/01/21 00:52:17;;;;;;;2.53;0.95;;;-3276.00;76.90;;;;;;5001398;28;20042;-73
2024/01/21 00:54:43;;;;;;;3.13;1.23;;;-3276.10;76.60;;;;;;5001155;28;20030;-73
2024/01/21 00:57:08;;;;;;;3.50;1.38;;;-3276.00;77.20;;;;;;5011335;28;20045;-73
2024/01/21 00:59:33;;;;;;;2.67;1.45;;;-3276.00;76.50;;;;;;5012545;28;20450;-73
2024/01/21 01:01:59;;;;;;;3.70;1.80;;;-3276.00;76.50;;;;;;5003188;28;20092;-74
2024/01/21 01:04:24;;;;;;;2.28;1.10;;;-3276.10;76.30;;;;;;4999072;28;20155;-74
2024/01/21 01:06:50;;;;;;;2.78;1.30;;;-3276.00;76.50;;;;;;4999292;28;20450;-74
2024/01/21 01:09:15;;;;;;;3.92;1.58;;;-3276.20;75.30;;;;;;5001814;28;20112;-73
2024/01/21 01:11:41;;;;;;;2.58;1.45;;;-3276.10;75.80;;;;;;5016716;28;20049;-73
2024/01/21 01:14:06;;;;;;;2.60;1.20;;;-3276.10;76.00;;;;;;4994458;28;20153;-73
2024/01/21 01:16:40;;;;;;;4.30;1.40;;;-3276.10;74.80;;;;;;5000744;28;20030;-74
2024/01/21 01:19:06;;;;;;;2.55;1.30;;;-3276.10;75.10;;;;;;5001697;28;20026;-74
2024/01/21 01:21:32;;;;;;;4.13;1.42;;;-3276.20;74.30;;;;;;4998051;28;20046;-73
2024/01/21 01:23:57;;;;;;;2.15;1.00;;;-3276.20;74.90;;;;;;5005428;28;20509;-73
2024/01/21 01:26:23;;;;;;;2.58;1.33;;;-3276.30;74.00;;;;;;4997633;28;20061;-73
2024/01/21 01:28:50;;;;;;;2.47;1.20;;;-3276.20;74.70;;;;;;5001971;28;20034;-73
2024/01/21 01:31:19;;;;;;;2.92;1.08;;;-3276.20;75.30;;;;;;4995336;28;20436;-73
2024/01/21 01:33:45;;;;;;;3.15;1.50;;;-3276.20;74.30;;;;;;4994845;28;20085;-73
2024/01/21 01:36:11;;;;;;;3.92;1.40;;;-3276.30;74.80;;;;;;4992041;28;20475;-73
2024/01/21 01:38:36;;;;;;;3.30;1.42;;;-3276.20;74.60;;;;;;4996126;28;20026;-73
2024/01/21 01:41:02;;;;;;;2.40;1.20;;;-3276.30;73.60;;;;;;4996221;28;20117;-73
2024/01/21 01:43:27;;;;;;;2.28;1.20;;;-3276.30;73.40;;;;;;5016870;28;20057;-73
2024/01/21 01:45:54;;;;;;;4.10;1.10;;;-3276.30;73.50;;;;;;4994648;28;20695;-73
2024/01/21 01:48:22;;;;;;;1.58;0.93;;;-3276.40;72.70;;;;;;4996406;28;20041;-73
2024/01/21 01:50:49;;;;;;;1.38;0.90;;;-3276.40;72.50;;;;;;5003586;28;20041;-73
2024/01/21 01:53:16;;;;;;;2.80;1.10;;;-3276.50;70.40;;;;;;5017563;28;20068;-73
2024/01/21 01:55:42;;;;;;;1.38;0.98;;;-3276.40;72.40;;;;;;5002645;28;20033;-73
2024/01/21 01:58:08;;;;;;;2.58;1.20;;;-3276.30;72.70;;;;;;4996162;28;20041;-73
2024/01/21 02:00:33;;;;;;;3.22;1.20;;;-3276.40;71.20;;;;;;5013923;28;20030;-73
2024/01/21 02:02:59;;;;;;;1.98;1.10;;;-3276.40;71.60;;;;;;4998114;28;20034;-73
2024/01/21 02:05:25;;;;;;;3.20;1.50;;;-3276.40;70.90;;;;;;4992148;28;20042;-73
2024/01/21 02:07:50;;;;;;;2.15;1.00;;;-3276.20;71.70;;;;;;5002452;28;20026;-73
2024/01/21 02:10:16;;;;;;;3.67;1.45;;;-3276.30;70.60;;;;;;5000372;28;20105;-73
2024/01/21 02:12:43;;;;;;;4.43;1.55;;;-3276.30;70.40;;;;;;5003970;28;20069;-73
2024/01/21 02:15:10;;;;;;;3.53;1.20;;;-3276.20;71.00;;;;;;4996187;28;20058;-73
2024/01/21 02:17:35;;;;;;;2.28;0.95;;;-3276.10;71.40;;;;;;4997484;28;20108;-73
2024/01/21 02:20:01;;;;;;;1.58;0.80;;;-3276.20;70.20;;;;;;4998381;28;20034;-73
2024/01/21 02:22:27;;;;;;;1.73;1.10;;;-3276.20;69.20;;;;;;4991924;28;20042;-74
2024/01/21 02:24:53;;;;;;;2.13;1.02;;;-3276.10;69.80;;;;;;5000404;28;20105;-74
2024/01/21 02:27:18;;;;;;;1.58;1.00;;;-3276.20;69.20;;;;;;4999402;28;20155;-74
2024/01/21 02:29:44;;;;;;;2.67;1.23;;;-3276.00;70.30;;;;;;4992481;28;20141;-74
2024/01/21 02:32:09;;;;;;;2.97;1.27;;;-3275.90;70.70;;;;;;4996112;28;20070;-74
2024/01/21 02:34:35;;;;;;;3.00;1.58;;;-3276.00;69.70;;;;;;4993937;28;20116;-74
2024/01/21 02:37:00;;;;;;;5.25;1.77;;;-3276.00;70.30;;;;;;5001200;28;20100;-74
2024/01/21 02:39:26;;;;;;;3.53;1.42;;;-3276.00;70.20;;;;;;4995059;28;20018;-75
2024/01/21 02:41:51;;;;;;;2.92;1.27;;;-3276.10;69.90;;;;;;4997445;28;20042;-74
2024/01/21 02:44:17;;;;;;;2.97;1.50;;;-3276.10;69.70;;;;;;4995497;28;20081;-74
2024/01/21 02:46:43;;;;;;;3.88;1.65;;;-3276.00;69.70;;;;;;4998205;28;20068;-74
2024/01/21 02:49:08;;;;;;;2.45;1.30;;;-3276.10;69.90;;;;;;4994919;28;20071;-74
2024/01/21 02:51:34;;;;;;;3.53;1.35;;;-3276.10;70.00;;;;;;5006334;28;20355;-74
2024/01/21 02:53:59;;;;;;;2.97;1.50;;;-3276.10;70.50;;;;;;4996344;28;20035;-74
2024/01/21 02:56:26;;;;;;;3.38;1.33;;;-3276.20;69.60;;;;;;4992543;28;20030;-74
2024/01/21 02:58:52;;;;;;;3.17;1.33;;;-3276.10;70.10;;;;;;5003784;28;20126;-74
2024/01/21 03:01:18;;;;;;;2.50;1.35;;;-3276.10;69.70;;;;;;5000062;28;20401;-74
2024/01/21 03:03:44;;;;;;;3.00;1.45;;;-3276.10;70.00;;;;;;4993971;28;20057;-75
2024/01/21 03:06:10;;;;;;;2.88;1.48;;;-3276.30;68.00;;;;;;4996867;28;20042;-74
2024/01/21 03:08:36;;;;;;;3.72;1.70;;;-3276.10;69.50;;;;;;5001182;28;20056;-74
2024/01/21 03:11:02;;;;;;;3.97;1.40;;;-3276.20;67.60;;;;;;5003424;28;20042;-74
2024/01/21 03:13:27;;;;;;;5.90;1.60;;;-3276.30;67.30;;;;;;5002050;28;20454;-73
2024/01/21 03:15:53;;;;;;;3.17;1.52;;;-3276.30;66.60;;;;;;4998711;28;20037;-74
2024/01/21 03:18:19;;;;;;;6.55;1.55;;;-3276.30;66.60;;;;;;4999175;28;20022;-74
2024/01/21 03:20:44;;;;;;;4.07;1.30;;;-3276.20;67.00;;;;;;4998035;28;20493;-75
2024/01/21 03:23:10;;;;;;;4.05;1.65;;;-3276.30;66.20;;;;;;4998276;28;20116;-74
2024/01/21 03:25:35;;;;;;;3.88;1.48;;;-3276.10;67.20;;;;;;4998388;28;20037;-74
2024/01/21 03:28:01;;;;;;;2.88;1.65;;;-3275.90;68.90;;;;;;5003603;28;20097;-74
2024/01/21 03:30:26;;;;;;;2.80;1.27;;;-3275.90;68.70;;;;;;4991986;28;20046;-74
2024/01/21 03:32:52;;;;;;;4.15;1.48;;;-3275.70;70.00;;;;;;4992844;28;20126;-74
2024/01/21 03:35:18;;;;;;;2.92;1.38;;;-3275.80;68.90;;;;;;4991744;28;20408;-74
2024/01/21 03:37:43;;;;;;;4.85;1.52;;;-3275.80;69.10;;;;;;4992448;28;20145;-74
2024/01/21 03:40:09;;;;;;;3.72;1.80;;;-3275.80;68.70;;;;;;4994078;28;20041;-75
2024/01/21 03:42:35;;;;;;;3.45;0.98;;;-3275.80;68.20;;;;;;4993160;28;20258;-74
2024/01/21 03:45:00;;;;;;;2.25;0.93;;;-3275.90;67.60;;;;;;4996711;28;20074;-74
2024/01/21 03:47:26;;;;;;;2.53;1.23;;;-3276.00;67.00;;;;;;4999454;28;20033;-74
2024/01/21 03:49:51;;;;;;;2.72;1.13;;;-3276.00;67.10;;;;;;4996562;28;20434;-74
2024/01/21 03:52:17;;;;;;;2.47;1.35;;;-3276.10;67.00;;;;;;4996159;28;20114;-74
2024/01/21 03:54:43;;;;;;;3.60;1.45;;;-3276.30;65.40;;;;;;4995431;28;20034;-74
2024/01/21 03:57:08;;;;;;;2.35;1.30;;;-3276.20;65.70;;;;;;4996304;28;20037;-74
2024/01/21 03:59:34;;;;;;;4.70;1.38;;;-3276.40;63.90;;;;;;4997481;28;20132;-74
2024/01/21 04:01:59;;;;;;;2.15;1.13;;;-3276.50;63.60;;;;;;5002405;28;20127;-74
2024/01/21 04:04:25;;;;;;;4.05;1.60;;;-3276.40;64.70;;;;;;4992783;28;20517;-75
2024/01/21 04:06:50;;;;;;;1.80;0.82;;;-3276.60;63.30;;;;;;4998849;28;20082;-74
2024/01/21 04:09:22;;;;;;;1.55;0.88;;;-3276.70;63.10;;;;;;4995015;28;20038;-74
2024/01/21 04:11:47;;;;;;;3.38;1.20;;;-3276.60;63.80;;;;;;4998059;28;20134;-74
2024/01/21 04:14:13;;;;;;;2.92;1.38;;;-3276.70;63.00;;;;;;4997505;28;20034;-74
2024/01/21 04:16:39;;;;;;;2.28;1.20;;;0.10;61.30;;;;;;4996347;28;20038;-74
2024/01/21 04:19:04;;;;;;;2.00;0.98;;;0.10;60.60;;;;;;4992780;28;20081;-74
2024/01/21 04:21:32;;;;;;;3.78;1.10;;;0.20;60.30;;;;;;4995461;28;20112;-74
2024/01/21 04:23:58;;;;;;;2.97;1.45;;;0.20;60.80;;;;;;4995967;28;20040;-74
2024/01/21 04:26:23;;;;;;;2.08;1.00;;;0.30;59.50;;;;;;4997293;28;20046;-74
2024/01/21 04:28:49;;;;;;;2.17;0.90;;;0.30;60.10;;;;;;4996208;28;20030;-74
2024/01/21 04:31:14;;;;;;;1.55;0.90;;;0.50;58.40;;;;;;4997398;28;20038;-74
2024/01/21 04:33:40;;;;;;;1.40;0.70;;;0.50;58.90;;;;;;4994368;28;20053;-74
2024/01/21 04:36:06;;;;;;;1.67;0.98;;;0.60;57.40;;;;;;4998096;28;20351;-74
2024/01/21 04:38:31;;;;;;;2.17;0.80;;;0.60;57.50;;;;;;4996768;28;20052;-74
2024/01/21 04:40:57;;;;;;;1.98;0.90;;;0.60;57.90;;;;;;4998534;28;20026;-74
2024/01/21 04:43:22;;;;;;;0.95;0.47;;;0.60;57.90;;;;;;4997380;28;20470;-73
2024/01/21 04:45:48;;;;;;;1.92;0.98;;;0.80;56.60;;;;;;4991510;28;20042;-74
2024/01/21 04:48:13;;;;;;;1.50;0.68;;;0.80;56.60;;;;;;4995582;28;20073;-74
2024/01/21 04:50:39;;;;;;;2.80;0.90;;;1.00;54.40;;;;;;4997503;28;20194;-74
2024/01/21 04:53:04;;;;;;;1.90;0.82;;;1.00;54.50;;;;;;4999467;28;20046;-74
2024/01/21 04:55:29;;;;;;;1.75;1.10;;;1.00;54.90;;;;;;5005187;28;20439;-74
2024/01/21 04:57:55;;;;;;;2.13;0.80;;;1.00;54.50;;;;;;5001088;28;20031;-73
2024/01/21 05:00:20;;;;;;;1.45;0.65;;;1.20;53.20;;;;;;4995755;28;20459;-75
2024/01/21 05:02:46;;;;;;;2.53;0.98;;;1.20;52.50;;;;;;4996289;28;20053;-74
2024/01/21 05:05:11;;;;;;;2.25;1.00;;;1.10;55.10;;;;;;5000692;28;20060;-74
2024/01/21 05:07:37;;;;;;;1.33;0.75;;;1.10;53.70;;;;;;5000654;28;20026;-74
2024/01/21 05:10:03;;;;;;;1.65;0.80;;;1.10;53.10;;;;;;4996907;28;20109;-73
2024/01/21 05:12:28;;;;;;;1.23;0.80;;;1.10;54.80;;;;;;4996778;28;20038;-74
2024/01/21 05:14:55;;;;;;;1.45;0.68;;;1.10;53.60;;;;;;4991471;28;20331;-75
2024/01/21 05:17:21;;;;;;;1.67;0.90;;;1.30;51.80;;;;;;5003723;28;20070;-74
2024/01/21 05:19:46;;;;;;;2.45;0.88;;;1.20;53.00;;;;;;5005487;28;20069;-74
2024/01/21 05:22:12;;;;;;;2.38;0.88;;;1.30;51.00;;;;;;4999632;28;20041;-74
2024/01/21 05:24:37;;;;;;;1.02;0.73;;;1.20;53.50;;;;;;4999831;28;20038;-74
2024/01/21 05:27:03;;;;;;;1.38;0.60;;;1.20;51.80;;;;;;5003925;28;20141;-74
2024/01/21 05:29:29;;;;;;;1.60;0.63;;;1.10;53.10;;;;;;5000171;28;20072;-74
2024/01/21 05:31:54;;;;;;;0.60;0.60;;;1.10;53.10;;;;;;4999075;28;20050;-74
2024/01/21 05:34:20;;;;;;;1.00;0.68;;;1.10;53.70;;;;;;4995484;28;20144;-74
2024/01/21 05:36:45;;;;;;;1.92;0.88;;;1.20;51.60;;;;;;5002489;28;20034;-74
2024/01/21 05:39:13;;;;;;;1.35;0.70;;;1.10;52.50;;;;;;5001143;28;20033;-75
2024/01/21 05:41:39;;;;;;;1.13;0.70;;;1.10;51.80;;;;;;4998590;28;20374;-73
2024/01/21 05:44:04;;;;;;;1.17;0.50;;;1.10;52.90;;;;;;4997163;28;20104;-74
2024/01/21 05:46:30;;;;;;;1.48;0.90;;;1.00;53.50;;;;;;4998521;28;20549;-74
2024/01/21 05:48:55;;;;;;;1.65;0.60;;;1.10;52.30;;;;;;5003738;28;20061;-74
2024/01/21 05:51:21;;;;;;;1.08;0.60;;;1.00;53.90;;;;;;4997903;28;20057;-73
2024/01/21 05:53:46;;;;;;;1.23;0.70;;;0.90;54.00;;;;;;4998586;28;20065;-74
2024/01/21 05:56:12;;;;;;;0.93;0.80;;;0.90;54.90;;;;;;4995742;28;20093;-74
2024/01/21 05:58:37;;;;;;;2.88;0.85;;;0.80;54.60;;;;;;5000221;28;20030;-74
2024/01/21 06:01:03;;;;;;;1.25;0.57;;;0.90;53.30;;;;;;5000456;28;20317;-74
2024/01/21 06:03:28;;;;;;;1.63;0.73;;;0.80;55.50;;;;;;4996783;28;20106;-74
2024/01/21 06:05:54;;;;;;;1.20;0.80;;;0.80;53.30;;;;;;5015207;28;20045;-74
2024/01/21 06:08:19;;;;;;;1.80;0.60;;;0.80;54.70;;;;;;4996714;28;20077;-74
2024/01/21 06:10:45;;;;;;;1.08;0.90;;;0.70;55.70;;;;;;5001669;28;20118;-74
2024/01/21 06:13:10;;;;;;;0.98;0.60;;;0.70;54.50;;;;;;4996036;28;20111;-74
2024/01/21 06:15:36;;;;;;;1.25;0.73;;;0.70;54.80;;;;;;4995638;28;20474;-74
2024/01/21 06:18:01;;;;;;;1.15;0.70;;;0.70;55.00;;;;;;5000280;28;20041;-74
2024/01/21 06:20:27;;;;;;;1.73;0.80;;;0.70;54.50;;;;;;4993953;28;20044;-74
2024/01/21 06:22:52;;;;;;;1.83;0.70;;;0.70;54.60;;;;;;4997405;28;20041;-74
2024/01/21 06:25:18;;;;;;;2.47;1.00;;;0.70;54.20;;;;;;4999019;28;20039;-73
2024/01/21 06:27:43;;;;;;;2.70;1.00;;;0.70;54.80;;;;;;5003109;28;20053;-74
2024/01/21 06:30:13;;;;;;;1.55;0.88;;;0.60;55.90;;;;;;4997212;28;20031;-74
2024/01/21 06:32:39;;;;;;;2.22;0.85;;;0.60;56.10;;;;;;5000730;28;20076;-74
2024/01/21 06:35:05;;;;;;;3.33;1.00;;;0.40;57.30;;;;;;5003210;28;20070;-74
2024/01/21 06:37:30;;;;;;;1.33;0.80;;;0.40;56.80;;;;;;4998052;28;20392;-74
2024/01/21 06:39:56;;;;;;;1.20;0.80;;;0.40;56.50;;;;;;4993146;28;20173;-74
2024/01/21 06:42:21;;;;;;;1.20;0.70;;;0.50;56.40;;;;;;4997163;28;20053;-74
2024/01/21 06:44:47;;;;;;;2.30;0.90;;;0.40;57.50;;;;;;4995493;28;20046;-72
2024/01/21 06:47:12;;;;;;;2.67;0.95;;;0.40;57.20;;;;;;4996776;28;20146;-74
2024/01/21 06:49:38;;;;;;;0.95;0.68;;;0.40;56.00;;;;;;4999658;28;20434;-74
2024/01/21 06:52:07;;;;;;;1.75;0.95;;;0.40;57.10;;;;;;4997565;28;20045;-74
2024/01/21 06:54:33;;;;;;;1.20;0.68;;;0.40;56.50;;;;;;4995485;28;20026;-74
2024/01/21 06:56:58;;;;;;;1.15;0.70;;;0.40;57.00;;;;;;5001691;28;20044;-74
2024/01/21 06:59:24;;;;;;;1.83;0.82;;;0.50;56.00;;;;;;5001011;28;20223;-74
2024/01/21 07:01:50;;;;;;;2.13;0.85;;;0.40;56.50;;;;;;4999416;28;20057;-72
2024/01/21 07:04:18;;;;;;;0.85;0.60;;;0.40;56.10;;;;;;4998361;28;20448;-73
2024/01/21 07:06:44;;;;;;;1.58;0.70;;;0.30;56.60;;;;;;5006827;28;20075;-72
2024/01/21 07:09:10;;;;;;;1.63;0.70;;;0.40;55.60;;;;;;5001696;28;20041;-72
2024/01/21 07:11:39;;;;;;;2.35;0.77;;;0.40;56.10;;;;;;5002211;28;20136;-72
2024/01/21 07:14:05;;;;;;;5.35;1.10;;;0.40;55.60;;;;;;5003769;28;20423;-72
2024/01/21 07:16:30;;;;;;;1.88;0.65;;;0.40;55.90;;;;;;5014450;28;20117;-72
2024/01/21 07:18:57;;;;;;;2.15;0.80;;;0.50;55.60;;;;;;5005437;28;20022;-72
2024/01/21 07:21:22;;;;;;;2.00;0.75;;;0.50;55.80;;;;;;5003948;28;20026;-72
2024/01/21 07:23:47;;;;;;;2.35;0.98;;;0.50;56.20;;;;;;5001607;28;20038;-72
2024/01/21 07:26:13;;;;;;;1.10;0.75;;;0.50;56.00;;;;;;5004547;28;20442;-72
2024/01/21 07:28:38;;;;;;;0.70;0.60;;;0.60;54.90;;;;;;5002782;28;20045;-72
2024/01/21 07:31:04;;;;;;;1.85;0.90;;;0.60;55.40;;;;;;5004675;28;20034;-72
2024/01/21 07:33:29;;;;;;;1.00;0.70;;;0.70;55.10;;;;;;4999725;28;20034;-72
2024/01/21 07:35:55;;;;;;;0.63;0.50;;;0.80;53.90;;;;;;5000234;28;20042;-72
2024/01/21 07:38:21;;;;;;;2.03;1.08;;;0.70;55.20;;;;;;4995563;28;20074;-72
2024/01/21 07:40:47;;;;;;;1.50;0.70;;;0.70;54.50;;;;;;5002156;28;20108;-72
2024/01/21 07:43:13;;;;;;;4.15;1.02;;;0.70;55.60;;;;;;5004556;28;20022;-72
2024/01/21 07:45:39;;;;;;;1.38;0.80;;;0.70;54.50;;;;;;4996202;28;20023;-72
2024/01/21 07:48:05;;;;;;;2.35;1.05;;;0.70;54.70;;;;;;5001264;28;20120;-72
2024/01/21 07:50:31;;;;;;;2.65;1.23;;;0.80;54.30;;;;;;4995478;28;20427;-72
2024/01/21 07:52:56;;;;;;;1.90;0.85;;;0.80;54.80;;;;;;5002130;28;20042;-72
2024/01/21 07:55:22;;;;;;;1.67;0.88;;;0.70;55.70;;;;;;4996906;28;20301;-72
2024/01/21 07:57:47;;;;;;;2.05;1.00;;;0.80;54.60;;;;;;4999679;28;20034;-72
2024/01/21 08:00:15;;;;;;;1.88;0.93;;;0.90;53.50;;;;;;4997269;28;20038;-72
2024/01/21 08:02:41;;;;;;;1.15;0.77;;;0.90;54.80;;;;;;5000397;28;20026;-75
2024/01/21 08:05:06;;;;;;;1.42;1.00;;;0.90;54.00;;;;;;4995899;28;20092;-72
2024/01/21 08:07:32;;;;;;;2.03;0.85;;;0.90;54.60;;;;;;5000436;28;20105;-72
2024/01/21 08:09:58;;;;;;;1.48;0.70;;;0.90;54.10;;;;;;4995691;28;20061;-73
2024/01/21 08:12:23;;;;;;;1.23;0.90;;;1.10;52.70;;;;;;5000831;28;20029;-72
2024/01/21 08:14:49;;;;;;;1.63;0.93;;;1.10;53.60;;;;;;4993110;28;20053;-73
2024/01/21 08:17:14;;;;;;;1.98;1.00;;;1.10;53.20;;;;;;4997304;28;20530;-72
2024/01/21 08:19:40;;;;;;;0.98;0.68;;;1.20;53.40;;;;;;4990889;28;20328;-73
2024/01/21 08:22:08;;;;;;;1.60;0.75;;;1.30;52.30;;;;;;5006471;28;20053;-73
2024/01/21 08:24:34;;;;;;;2.47;1.00;;;1.30;52.20;;;;;;5001105;28;20036;-72
2024/01/21 08:27:00;;;;;;;1.65;0.90;;;1.40;51.60;;;;;;4999062;28;20046;-73
2024/01/21 08:29:27;;;;;;;0.82;0.60;;;1.40;52.00;;;;;;5000638;28;20058;-73
2024/01/21 08:31:56;;;;;;;1.83;0.98;;;1.40;52.80;;;;;;5004562;28;20125;-72
2024/01/21 08:34:21;;;;;;;0.65;0.60;;;1.50;51.70;;;;;;4997946;28;20037;-72
2024/01/21 08:36:47;;;;;;;2.05;0.90;;;1.50;52.50;;;;;;5000665;28;20450;-71
2024/01/21 08:39:12;;;;;;;1.55;0.95;;;1.60;52.70;;;;;;4998337;28;20042;-72
2024/01/21 08:41:38;;;;;;;0.73;0.73;;;1.50;52.30;;;;;;5007004;28;20431;-71
2024/01/21 08:44:03;;;;;;;2.78;0.98;;;1.50;53.10;;;;;;5035747;28;20087;-72
2024/01/21 08:46:29;;;;;;;2.17;0.93;;;1.60;52.00;;;;;;4997099;28;20486;-72
2024/01/21 08:48:55;;;;;;;1.10;0.77;;;1.60;52.20;;;;;;5008683;28;20037;-72
2024/01/21 08:51:21;;;;;;;1.50;1.00;;;1.60;52.30;;;;;;5000312;28;20034;-72
2024/01/21 08:53:46;;;;;;;1.15;0.70;;;1.60;52.00;;;;;;4997895;28;20066;-73
2024/01/21 08:56:12;;;;;;;2.50;0.90;;;1.60;53.20;;;;;;5004069;28;20041;-72
2024/01/21 08:58:38;;;;;;;1.65;0.90;;;1.70;52.60;;;;;;5004819;28;20037;-73
2024/01/21 09:01:03;;;;;;;1.80;1.00;;;1.60;53.30;;;;;;5003429;28;20116;-72
2024/01/21 09:03:30;;;;;;;2.03;0.90;;;1.60;53.20;;;;;;4997373;28;20035;-72
2024/01/21 09:05:56;;;;;;;1.20;0.70;;;1.60;53.20;;;;;;5002823;28;20872;-71
2024/01/21 09:08:21;;;;;;;0.80;0.80;;;1.60;52.80;;;;;;4999915;28;20117;-72
2024/01/21 09:10:47;;;;;;;1.20;0.93;;;1.60;52.50;;;;;;4999423;28;20117;-72
2024/01/21 09:13:13;;;;;;;1.63;0.80;;;1.60;53.80;;;;;;4999467;28;20362;-72
2024/01/21 09:15:40;;;;;;;2.25;1.15;;;1.60;54.70;;;;;;4994457;28;20063;-72
2024/01/21 09:18:06;;;;;;;1.48;0.88;;;1.60;53.20;;;;;;4998931;28;20026;-72
2024/01/21 09:20:31;;;;;;;2.47;0.90;;;1.70;53.20;;;;;;5000043;28;20034;-72
2024/01/21 09:22:57;;;;;;;1.10;0.80;;;1.70;52.80;;;;;;5001379;28;20541;-73
2024/01/21 09:25:22;;;;;;;2.72;0.95;;;1.70;52.70;;;;;;4996362;28;20486;-72
2024/01/21 09:27:49;;;;;;;1.50;0.90;;;1.80;52.20;;;;;;5000978;28;20104;-71
2024/01/21 09:30:15;;;;;;;2.42;1.05;;;1.90;52.50;;;;;;5001389;28;20303;-70
2024/01/21 09:32:40;;;;;;;0.98;0.88;;;1.90;53.40;;;;;;4994257;28;20514;-72
2024/01/21 09:35:06;;;;;;;1.05;0.77;;;2.00;52.10;;;;;;4998908;28;20514;-71
2024/01/21 09:37:32;;;;;;;1.83;0.80;;;2.00;53.40;;;;;;4997658;28;20109;-73
2024/01/21 09:39:57;;;;;;;1.67;0.95;;;2.00;52.50;;;;;;5004512;28;20046;-73
2024/01/21 09:42:23;;;;;;;2.40;1.00;;;2.10;52.80;;;;;;5002554;28;20034;-72
2024/01/21 09:44:48;;;;;;;1.63;0.85;;;2.10;53.40;;;;;;4996081;28;20388;-72
2024/01/21 09:47:14;;;;;;;1.88;0.95;;;2.10;52.70;;;;;;5028645;28;20366;-72
2024/01/21 09:49:40;;;;;;;2.17;0.93;;;2.20;52.10;;;;;;5019042;28;20049;-71
2024/01/21 09:52:06;;;;;;;2.13;1.10;;;2.30;51.60;;;;;;4999137;28;20044;-71
2024/01/21 09:54:31;;;;;;;2.38;0.95;;;2.30;51.20;;;;;;4994198;28;20444;-70
2024/01/21 09:56:57;;;;;;;2.25;1.10;;;2.30;51.20;;;;;;5001270;28;20034;-71
2024/01/21 09:59:23;;;;;;;1.60;0.80;;;2.30;53.50;;;;;;4997041;28;20034;-72
2024/01/21 10:01:48;;;;;;;4.03;1.27;;;2.30;52.30;;;;;;4998241;28;20048;-71
2024/01/21 10:04:14;;;;;;;1.73;0.82;;;2.40;52.30;;;;;;4992697;28;20045;-71
2024/01/21 10:06:40;;;;;;;2.40;1.10;;;2.30;53.60;;;;;;5012542;28;20106;-70
2024/01/21 10:09:17;;;;;;;1.42;0.90;;;2.50;51.70;;;;;;4998028;28;20030;-71
2024/01/21 10:11:48;;;;;;;3.40;1.08;;;2.50;53.10;;;;;;4999141;28;20591;-71
2024/01/21 10:14:14;;;;;;;1.58;0.90;;;2.50;52.30;;;;;;4998839;28;20470;-71
2024/01/21 10:16:42;;;;;;;2.60;1.10;;;2.50;53.70;;;;;;4999687;28;20057;-71
2024/01/21 10:19:10;;;;;;;1.80;0.85;;;2.60;52.30;;;;;;4994490;28;20041;-67
2024/01/21 10:21:35;;;;;;;1.38;0.88;;;2.60;53.70;;;;;;4998234;28;20057;-68
2024/01/21 10:24:01;;;;;;;1.58;0.80;;;2.70;53.20;;;;;;4999319;28;20078;-69
2024/01/21 10:26:27;;;;;;;1.30;0.77;;;2.70;53.20;;;;;;4997004;28;20054;-67
2024/01/21 10:28:52;;;;;;;2.05;0.95;;;2.80;52.00;;;;;;5003367;28;20029;-67
2024/01/21 10:31:17;;;;;;;1.75;0.80;;;2.70;52.90;;;;;;4999312;28;20034;-67
2024/01/21 10:33:44;;;;;;;1.55;0.73;;;2.80;52.70;;;;;;5012255;28;20025;-69
2024/01/21 10:36:11;;;;;;;2.90;1.17;;;2.90;52.00;;;;;;4993288;28;20030;-68
2024/01/21 10:38:48;;;;;;;2.58;1.20;;;3.00;51.80;;;;;;4997200;28;20346;-68
2024/01/21 10:41:24;;;;;;;1.13;0.80;;;3.00;52.00;;;;;;5001286;28;20152;-69
2024/01/21 10:43:53;;;;;;;3.15;1.17;;;3.00;51.40;;;;;;5006259;28;20037;-68
2024/01/21 10:46:19;;;;;;;2.05;0.70;;;3.00;51.90;;;;;;4994818;28;20386;-69
2024/01/21 10:48:47;;;;;;;1.63;1.00;;;3.10;50.40;;;;;;4997572;28;20229;-68
2024/01/21 10:51:15;;;;;;;1.25;0.60;;;3.10;50.40;;;;;;5001114;28;20034;-68
2024/01/21 10:53:42;;;;;;;2.03;0.93;;;3.20;51.20;;;;;;5000029;28;20468;-68
2024/01/21 10:56:08;;;;;;;2.15;0.85;;;3.20;52.00;;;;;;4994044;28;20109;-67
2024/01/21 10:58:34;;;;;;;2.65;1.25;;;3.20;52.60;;;;;;4997687;28;20233;-68
2024/01/21 11:01:01;;;;;;;2.20;0.93;;;3.30;49.90;;;;;;4993380;28;20057;-69
2024/01/21 11:03:30;;;;;;;2.25;0.90;;;3.30;52.10;;;;;;4994098;28;20030;-67
2024/01/21 11:06:00;;;;;;;3.28;0.98;;;3.40;51.70;;;;;;4998262;28;20090;-70
2024/01/21 11:08:27;;;;;;;3.63;1.10;;;3.60;51.00;;;;;;4996104;28;20034;-70
2024/01/21 11:11:17;;;;;;;2.22;1.20;;;3.60;51.30;;;;;;4995571;28;20351;-69
2024/01/21 11:13:44;;;;;;;2.20;0.95;;;3.60;52.10;;;;;;4993009;28;20068;-67
2024/01/21 11:16:26;;;;;;;1.50;0.80;;;3.70;49.40;;;;;;4996494;28;20112;-68
2024/01/21 11:18:52;;;;;;;0.93;0.80;;;3.70;49.80;;;;;;4989040;28;20034;-69
2024/01/21 11:21:21;;;;;;;2.25;0.75;;;3.80;50.60;;;;;;4997827;28;20137;-68
2024/01/21 11:24:09;;;;;;;1.98;1.17;;;3.90;50.20;;;;;;4987811;28;20042;-68
2024/01/21 11:26:41;;;;;;;2.30;1.00;;;4.10;50.90;;;;;;5003317;28;20046;-68
2024/01/21 11:29:29;;;;;;;1.77;1.08;;;4.10;51.40;;;;;;4993719;28;20363;-68
2024/01/21 11:32:04;;;;;;;2.17;1.23;;;4.10;48.10;;;;;;5026863;28;20050;-68
2024/01/21 11:34:36;;;;;;;2.28;1.10;;;4.00;49.60;;;;;;5000444;28;20041;-68
2024/01/21 11:37:02;;;;;;;2.78;0.98;;;4.00;50.30;;;;;;4996007;28;20382;-68
2024/01/21 11:39:28;;;;;;;2.30;1.15;;;4.00;50.30;;;;;;4998735;28;20483;-68
2024/01/21 11:41:54;;;;;;;2.50;1.08;;;4.10;51.20;;;;;;5003159;28;20112;-68
2024/01/21 11:44:20;;;;;;;1.13;0.82;;;4.20;50.70;;;;;;5006072;28;20072;-68
2024/01/21 11:46:46;;;;;;;2.65;1.02;;;4.30;51.70;;;;;;5015205;28;20026;-68
2024/01/21 11:49:13;;;;;;;1.08;0.80;;;4.30;51.50;;;;;;4998502;28;20087;-68
2024/01/21 11:51:38;;;;;;;2.72;1.23;;;4.20;51.20;;;;;;4996962;28;20105;-68
2024/01/21 11:54:05;;;;;;;1.38;0.82;;;4.20;52.60;;;;;;5028316;28;20165;-68
2024/01/21 11:56:31;;;;;;;2.53;1.20;;;4.10;51.70;;;;;;5011208;28;20469;-68
2024/01/21 11:59:00;;;;;;;2.35;1.30;;;4.10;52.40;;;;;;4998957;28;20166;-70
2024/01/21 12:01:26;;;;;;;2.80;0.98;;;4.20;51.20;;;;;;4995585;28;20085;-68
2024/01/21 12:03:53;;;;;;;2.38;1.00;;;4.20;51.60;;;;;;4994082;28;20129;-68
2024/01/21 12:06:19;;;;;;;3.40;1.40;;;4.20;52.40;;;;;;5016659;28;20041;-68
2024/01/21 12:08:45;;;;;;;2.58;1.33;;;4.10;52.00;;;;;;5003298;28;20033;-68
2024/01/21 12:11:15;;;;;;;2.25;0.95;;;4.10;52.80;;;;;;4995673;28;20060;-69
2024/01/21 12:13:43;;;;;;;2.03;1.20;;;4.10;52.50;;;;;;4992363;28;20130;-69
2024/01/21 12:16:09;;;;;;;4.10;1.40;;;4.10;54.00;;;;;;4990061;28;20090;-68
2024/01/21 12:18:41;;;;;;;3.40;1.70;;;4.10;52.40;;;;;;5009064;28;20143;-68
2024/01/21 12:21:10;;;;;;;2.05;1.10;;;4.10;52.40;;;;;;4989307;28;20031;-68
2024/01/21 12:23:40;;;;;;;2.15;1.17;;;4.10;54.10;;;;;;4998225;28;20040;-68
2024/01/21 12:26:06;;;;;;;3.08;1.45;;;4.20;53.70;;;;;;4994552;28;20046;-69
2024/01/21 12:28:31;;;;;;;2.33;1.50;;;4.20;53.00;;;;;;5002853;28;20056;-69
2024/01/21 12:30:58;;;;;;;1.02;0.73;;;4.10;54.30;;;;;;4995679;28;20094;-68
2024/01/21 12:33:25;;;;;;;2.30;0.95;;;4.00;53.30;;;;;;5003338;28;20030;-69
2024/01/21 12:35:50;;;;;;;2.90;1.58;;;4.00;54.20;;;;;;4996991;28;20366;-69
2024/01/21 12:38:16;;;;;;;1.13;0.95;;;3.90;55.50;;;;;;4995663;28;20105;-69